sensor_id;sensor_type;location;lat;lon;timestamp;P1;durP1;ratioP1;P2;durP2;ratioP2
13455;SDS011;6800;50.940;6.940;2022-09-23T00:03:05;5.63;;;2.80;;
13455;SDS011;6800;50.940;6.940;2022-09-23T00:07:06;4.00;;;3.03;;
13455;SDS011;6800;50.940;6.940;2022-09-23T00:11:07;9.30;;;3.30;;
13455;SDS011;6800;50.940;6.940;2022-09-23T00:15:10;5.23;;;3.60;;
13455;SDS011;6800;50.940;6.940;2022-09-23T00:19:10;3.43;;;2.90;;
13455;SDS011;6800;50.940;6.940;2022-09-23T00:23:11;4.47;;;2.77;;
13455;SDS011;6800;50.940;6.940;2022-09-23T00:27:11;4.30;;;2.50;;
13455;SDS011;6800;50.940;6.940;2022-09-23T00:31:13;3.97;;;2.73;;
13455;SDS011;6800;50.940;6.940;2022-09-23T00:35:15;3.47;;;2.60;;
13455;SDS011;6800;50.940;6.940;2022-09-23T00:39:16;4.87;;;3.67;;
13455;SDS011;6800;50.940;6.940;2022-09-23T00:43:16;4.90;;;2.70;;
13455;SDS011;6800;50.940;6.940;2022-09-23T00:51:44;4.70;;;3.17;;
13455;SDS011;6800;50.940;6.940;2022-09-23T00:55:56;3.20;;;2.90;;
13455;SDS011;6800;50.940;6.940;2022-09-23T01:00:02;3.07;;;2.77;;
13455;SDS011;6800;50.940;6.940;2022-09-23T01:04:05;5.93;;;2.93;;
13455;SDS011;6800;50.940;6.940;2022-09-23T01:08:07;3.97;;;2.60;;
13455;SDS011;6800;50.940;6.940;2022-09-23T01:16:45;3.37;;;2.80;;
13455;SDS011;6800;50.940;6.940;2022-09-23T01:34:19;4.13;;;2.70;;
13455;SDS011;6800;50.940;6.940;2022-09-23T01:42:10;5.77;;;3.20;;
13455;SDS011;6800;50.940;6.940;2022-09-23T01:46:23;3.47;;;2.90;;
13455;SDS011;6800;50.940;6.940;2022-09-23T01:50:31;3.27;;;3.00;;
13455;SDS011;6800;50.940;6.940;2022-09-23T01:55:03;3.37;;;2.87;;
13455;SDS011;6800;50.940;6.940;2022-09-23T01:59:10;5.33;;;3.13;;
13455;SDS011;6800;50.940;6.940;2022-09-23T02:03:18;3.73;;;2.70;;
13455;SDS011;6800;50.940;6.940;2022-09-23T02:07:42;3.73;;;3.13;;
13455;SDS011;6800;50.940;6.940;2022-09-23T02:11:49;4.73;;;2.70;;
13455;SDS011;6800;50.940;6.940;2022-09-23T02:15:54;4.23;;;2.90;;
13455;SDS011;6800;50.940;6.940;2022-09-23T02:19:59;4.60;;;2.80;;
13455;SDS011;6800;50.940;6.940;2022-09-23T02:28:15;3.80;;;3.00;;
13455;SDS011;6800;50.940;6.940;2022-09-23T02:41:32;4.90;;;3.00;;
13455;SDS011;6800;50.940;6.940;2022-09-23T02:45:40;4.07;;;3.10;;
13455;SDS011;6800;50.940;6.940;2022-09-23T02:49:41;3.10;;;2.80;;
13455;SDS011;6800;50.940;6.940;2022-09-23T02:53:42;3.33;;;2.90;;
13455;SDS011;6800;50.940;6.940;2022-09-23T02:57:44;5.97;;;3.20;;
13455;SDS011;6800;50.940;6.940;2022-09-23T03:02:06;3.20;;;2.80;;
13455;SDS011;6800;50.940;6.940;2022-09-23T03:06:15;3.40;;;3.10;;
13455;SDS011;6800;50.940;6.940;2022-09-23T03:10:54;3.20;;;2.90;;
13455;SDS011;6800;50.940;6.940;2022-09-23T03:19:23;3.50;;;2.80;;
13455;SDS011;6800;50.940;6.940;2022-09-23T03:23:33;5.50;;;3.20;;
13455;SDS011;6800;50.940;6.940;2022-09-23T03:27:35;4.63;;;3.00;;
13455;SDS011;6800;50.940;6.940;2022-09-23T03:36:08;4.40;;;3.30;;
13455;SDS011;6800;50.940;6.940;2022-09-23T03:40:33;5.33;;;2.77;;
13455;SDS011;6800;50.940;6.940;2022-09-23T03:44:43;3.63;;;3.30;;
13455;SDS011;6800;50.940;6.940;2022-09-23T03:48:45;5.80;;;3.20;;
13455;SDS011;6800;50.940;6.940;2022-09-23T03:52:46;4.90;;;3.20;;
13455;SDS011;6800;50.940;6.940;2022-09-23T03:56:48;3.17;;;2.97;;
13455;SDS011;6800;50.940;6.940;2022-09-23T04:00:48;2.93;;;2.63;;
13455;SDS011;6800;50.940;6.940;2022-09-23T04:04:49;7.50;;;3.20;;
13455;SDS011;6800;50.940;6.940;2022-09-23T04:08:49;3.70;;;3.20;;
13455;SDS011;6800;50.940;6.940;2022-09-23T04:12:49;4.20;;;3.27;;
13455;SDS011;6800;50.940;6.940;2022-09-23T04:16:50;4.32;;;2.85;;
13455;SDS011;6800;50.940;6.940;2022-09-23T04:20:50;3.73;;;3.23;;
13455;SDS011;6800;50.940;6.940;2022-09-23T04:24:50;4.60;;;3.53;;
13455;SDS011;6800;50.940;6.940;2022-09-23T04:28:51;6.57;;;3.63;;
13455;SDS011;6800;50.940;6.940;2022-09-23T04:32:52;6.13;;;3.30;;
13455;SDS011;6800;50.940;6.940;2022-09-23T04:36:53;4.40;;;3.33;;
13455;SDS011;6800;50.940;6.940;2022-09-23T04:40:53;3.10;;;2.80;;
13455;SDS011;6800;50.940;6.940;2022-09-23T04:44:53;4.57;;;3.60;;
13455;SDS011;6800;50.940;6.940;2022-09-23T04:48:53;3.63;;;3.33;;
13455;SDS011;6800;50.940;6.940;2022-09-23T04:52:54;4.80;;;3.77;;
13455;SDS011;6800;50.940;6.940;2022-09-23T04:56:54;4.87;;;3.73;;
13455;SDS011;6800;50.940;6.940;2022-09-23T05:00:55;5.17;;;3.17;;
13455;SDS011;6800;50.940;6.940;2022-09-23T05:04:56;4.03;;;3.20;;
13455;SDS011;6800;50.940;6.940;2022-09-23T05:08:57;4.13;;;3.37;;
13455;SDS011;6800;50.940;6.940;2022-09-23T05:12:58;5.00;;;4.07;;
13455;SDS011;6800;50.940;6.940;2022-09-23T05:16:58;3.70;;;3.23;;
13455;SDS011;6800;50.940;6.940;2022-09-23T05:20:58;5.90;;;3.80;;
13455;SDS011;6800;50.940;6.940;2022-09-23T05:24:59;5.67;;;3.70;;
13455;SDS011;6800;50.940;6.940;2022-09-23T05:29:01;5.23;;;3.57;;
13455;SDS011;6800;50.940;6.940;2022-09-23T05:33:01;7.17;;;4.50;;
13455;SDS011;6800;50.940;6.940;2022-09-23T05:37:01;3.83;;;3.07;;
13455;SDS011;6800;50.940;6.940;2022-09-23T05:41:03;6.73;;;3.23;;
13455;SDS011;6800;50.940;6.940;2022-09-23T05:45:06;4.80;;;3.40;;
13455;SDS011;6800;50.940;6.940;2022-09-23T05:49:07;4.97;;;3.47;;
13455;SDS011;6800;50.940;6.940;2022-09-23T05:53:08;7.23;;;3.37;;
13455;SDS011;6800;50.940;6.940;2022-09-23T05:57:09;7.73;;;3.70;;
13455;SDS011;6800;50.940;6.940;2022-09-23T06:01:15;4.57;;;3.50;;
13455;SDS011;6800;50.940;6.940;2022-09-23T06:05:17;5.43;;;2.97;;
13455;SDS011;6800;50.940;6.940;2022-09-23T06:09:18;5.37;;;3.43;;
13455;SDS011;6800;50.940;6.940;2022-09-23T06:13:18;5.13;;;3.60;;
13455;SDS011;6800;50.940;6.940;2022-09-23T06:17:18;3.93;;;3.13;;
13455;SDS011;6800;50.940;6.940;2022-09-23T06:21:18;4.47;;;4.00;;
13455;SDS011;6800;50.940;6.940;2022-09-23T06:25:19;9.30;;;4.33;;
13455;SDS011;6800;50.940;6.940;2022-09-23T06:29:20;4.87;;;3.50;;
13455;SDS011;6800;50.940;6.940;2022-09-23T06:33:20;6.43;;;3.33;;
13455;SDS011;6800;50.940;6.940;2022-09-23T06:37:21;7.73;;;4.33;;
13455;SDS011;6800;50.940;6.940;2022-09-23T06:41:22;3.93;;;3.43;;
13455;SDS011;6800;50.940;6.940;2022-09-23T06:45:22;8.93;;;4.00;;
13455;SDS011;6800;50.940;6.940;2022-09-23T06:49:22;4.80;;;3.40;;
13455;SDS011;6800;50.940;6.940;2022-09-23T06:53:23;4.00;;;3.60;;
13455;SDS011;6800;50.940;6.940;2022-09-23T06:57:23;7.07;;;3.80;;
13455;SDS011;6800;50.940;6.940;2022-09-23T07:01:23;4.67;;;3.70;;
13455;SDS011;6800;50.940;6.940;2022-09-23T07:05:24;3.67;;;3.37;;
13455;SDS011;6800;50.940;6.940;2022-09-23T07:09:24;5.33;;;3.20;;
13455;SDS011;6800;50.940;6.940;2022-09-23T07:13:25;3.57;;;3.27;;
13455;SDS011;6800;50.940;6.940;2022-09-23T07:17:26;3.77;;;3.40;;
13455;SDS011;6800;50.940;6.940;2022-09-23T07:21:26;4.73;;;3.00;;
13455;SDS011;6800;50.940;6.940;2022-09-23T07:25:26;3.80;;;2.70;;
13455;SDS011;6800;50.940;6.940;2022-09-23T07:29:28;3.43;;;3.07;;
13455;SDS011;6800;50.940;6.940;2022-09-23T07:33:28;5.90;;;2.80;;
13455;SDS011;6800;50.940;6.940;2022-09-23T07:37:30;4.17;;;2.40;;
13455;SDS011;6800;50.940;6.940;2022-09-23T07:41:31;3.83;;;2.87;;
13455;SDS011;6800;50.940;6.940;2022-09-23T07:45:33;3.97;;;2.60;;
13455;SDS011;6800;50.940;6.940;2022-09-23T07:49:33;4.70;;;2.70;;
13455;SDS011;6800;50.940;6.940;2022-09-23T07:53:34;6.65;;;2.95;;
13455;SDS011;6800;50.940;6.940;2022-09-23T07:57:35;5.00;;;2.40;;
13455;SDS011;6800;50.940;6.940;2022-09-23T08:01:40;5.68;;;3.10;;
13455;SDS011;6800;50.940;6.940;2022-09-23T08:05:43;3.65;;;2.90;;
13455;SDS011;6800;50.940;6.940;2022-09-23T08:09:43;5.13;;;2.70;;
13455;SDS011;6800;50.940;6.940;2022-09-23T08:13:43;4.65;;;3.40;;
13455;SDS011;6800;50.940;6.940;2022-09-23T08:22:08;3.60;;;2.58;;
13455;SDS011;6800;50.940;6.940;2022-09-23T08:26:08;5.03;;;2.40;;
13455;SDS011;6800;50.940;6.940;2022-09-23T08:30:09;4.03;;;2.95;;
13455;SDS011;6800;50.940;6.940;2022-09-23T08:34:10;8.23;;;3.53;;
13455;SDS011;6800;50.940;6.940;2022-09-23T08:38:16;5.80;;;3.05;;
13455;SDS011;6800;50.940;6.940;2022-09-23T08:42:24;3.78;;;2.95;;
13455;SDS011;6800;50.940;6.940;2022-09-23T08:50:43;6.82;;;3.10;;
13455;SDS011;6800;50.940;6.940;2022-09-23T08:54:47;5.15;;;3.30;;
13455;SDS011;6800;50.940;6.940;2022-09-23T09:11:22;8.27;;;2.90;;
13455;SDS011;6800;50.940;6.940;2022-09-23T09:15:30;4.38;;;2.75;;
13455;SDS011;6800;50.940;6.940;2022-09-23T09:23:56;3.55;;;2.58;;
13455;SDS011;6800;50.940;6.940;2022-09-23T09:27:58;4.22;;;3.00;;
13455;SDS011;6800;50.940;6.940;2022-09-23T09:31:59;4.10;;;2.65;;
13455;SDS011;6800;50.940;6.940;2022-09-23T09:36:41;3.72;;;2.38;;
13455;SDS011;6800;50.940;6.940;2022-09-23T09:40:47;6.22;;;2.50;;
13455;SDS011;6800;50.940;6.940;2022-09-23T09:44:53;4.03;;;2.55;;
13455;SDS011;6800;50.940;6.940;2022-09-23T09:49:00;5.93;;;2.10;;
13455;SDS011;6800;50.940;6.940;2022-09-23T09:53:13;2.50;;;2.20;;
13455;SDS011;6800;50.940;6.940;2022-09-23T10:01:31;3.63;;;3.00;;
13455;SDS011;6800;50.940;6.940;2022-09-23T10:05:34;4.85;;;3.50;;
13455;SDS011;6800;50.940;6.940;2022-09-23T10:09:48;5.40;;;2.97;;
13455;SDS011;6800;50.940;6.940;2022-09-23T10:14:00;6.75;;;2.80;;
13455;SDS011;6800;50.940;6.940;2022-09-23T10:18:17;5.53;;;2.70;;
13455;SDS011;6800;50.940;6.940;2022-09-23T10:22:23;4.50;;;2.30;;
13455;SDS011;6800;50.940;6.940;2022-09-23T10:26:29;5.28;;;2.33;;
13455;SDS011;6800;50.940;6.940;2022-09-23T10:30:39;4.22;;;2.42;;
13455;SDS011;6800;50.940;6.940;2022-09-23T10:34:42;2.60;;;1.80;;
13455;SDS011;6800;50.940;6.940;2022-09-23T10:38:50;3.60;;;1.98;;
13455;SDS011;6800;50.940;6.940;2022-09-23T10:47:35;3.25;;;2.30;;
13455;SDS011;6800;50.940;6.940;2022-09-23T11:04:55;5.10;;;2.05;;
13455;SDS011;6800;50.940;6.940;2022-09-23T11:39:15;2.85;;;2.28;;
13455;SDS011;6800;50.940;6.940;2022-09-23T11:43:49;3.30;;;2.25;;
13455;SDS011;6800;50.940;6.940;2022-09-23T11:56:38;6.30;;;2.35;;
13455;SDS011;6800;50.940;6.940;2022-09-23T12:00:49;3.17;;;2.00;;
13455;SDS011;6800;50.940;6.940;2022-09-23T12:08:56;6.63;;;2.60;;
13455;SDS011;6800;50.940;6.940;2022-09-23T12:13:05;3.90;;;2.10;;
13455;SDS011;6800;50.940;6.940;2022-09-23T12:26:11;4.47;;;2.35;;
13455;SDS011;6800;50.940;6.940;2022-09-23T12:30:20;2.83;;;1.67;;
13455;SDS011;6800;50.940;6.940;2022-09-23T12:34:37;3.17;;;1.60;;
13455;SDS011;6800;50.940;6.940;2022-09-23T12:38:47;3.47;;;1.80;;
13455;SDS011;6800;50.940;6.940;2022-09-23T12:42:52;3.22;;;1.40;;
13455;SDS011;6800;50.940;6.940;2022-09-23T12:51:24;3.85;;;1.90;;
13455;SDS011;6800;50.940;6.940;2022-09-23T13:03:53;4.78;;;2.25;;
13455;SDS011;6800;50.940;6.940;2022-09-23T13:08:14;2.53;;;2.33;;
13455;SDS011;6800;50.940;6.940;2022-09-23T13:12:26;5.53;;;1.95;;
13455;SDS011;6800;50.940;6.940;2022-09-23T13:16:33;3.08;;;2.28;;
13455;SDS011;6800;50.940;6.940;2022-09-23T13:24:51;3.47;;;1.90;;
13455;SDS011;6800;50.940;6.940;2022-09-23T13:28:53;4.35;;;2.78;;
13455;SDS011;6800;50.940;6.940;2022-09-23T13:33:17;3.38;;;2.10;;
13455;SDS011;6800;50.940;6.940;2022-09-23T13:37:46;3.08;;;1.48;;
13455;SDS011;6800;50.940;6.940;2022-09-23T13:41:48;4.00;;;1.98;;
13455;SDS011;6800;50.940;6.940;2022-09-23T13:45:50;2.97;;;2.03;;
13455;SDS011;6800;50.940;6.940;2022-09-23T13:49:51;5.50;;;1.67;;
13455;SDS011;6800;50.940;6.940;2022-09-23T13:53:56;3.05;;;1.75;;
13455;SDS011;6800;50.940;6.940;2022-09-23T13:57:59;3.22;;;2.20;;
13455;SDS011;6800;50.940;6.940;2022-09-23T14:02:05;3.33;;;2.33;;
13455;SDS011;6800;50.940;6.940;2022-09-23T14:06:11;6.78;;;2.40;;
13455;SDS011;6800;50.940;6.940;2022-09-23T14:10:16;5.38;;;2.08;;
13455;SDS011;6800;50.940;6.940;2022-09-23T14:14:20;5.90;;;2.20;;
13455;SDS011;6800;50.940;6.940;2022-09-23T14:23:03;4.93;;;2.78;;
13455;SDS011;6800;50.940;6.940;2022-09-23T14:31:05;5.45;;;2.78;;
13455;SDS011;6800;50.940;6.940;2022-09-23T14:35:18;2.97;;;2.30;;
13455;SDS011;6800;50.940;6.940;2022-09-23T14:39:21;6.32;;;2.60;;
13455;SDS011;6800;50.940;6.940;2022-09-23T14:43:22;3.35;;;2.08;;
13455;SDS011;6800;50.940;6.940;2022-09-23T14:47:25;3.58;;;2.42;;
13455;SDS011;6800;50.940;6.940;2022-09-23T14:51:33;5.03;;;3.30;;
13455;SDS011;6800;50.940;6.940;2022-09-23T14:55:39;4.22;;;2.85;;
13455;SDS011;6800;50.940;6.940;2022-09-23T14:59:45;6.25;;;2.80;;
13455;SDS011;6800;50.940;6.940;2022-09-23T15:03:49;6.72;;;2.72;;
13455;SDS011;6800;50.940;6.940;2022-09-23T15:07:51;5.72;;;2.20;;
13455;SDS011;6800;50.940;6.940;2022-09-23T15:11:58;3.03;;;2.10;;
13455;SDS011;6800;50.940;6.940;2022-09-23T15:16:01;3.63;;;1.92;;
13455;SDS011;6800;50.940;6.940;2022-09-23T15:20:05;4.22;;;2.00;;
13455;SDS011;6800;50.940;6.940;2022-09-23T15:24:31;4.13;;;2.83;;
13455;SDS011;6800;50.940;6.940;2022-09-23T15:28:37;3.25;;;1.67;;
13455;SDS011;6800;50.940;6.940;2022-09-23T15:32:41;5.18;;;2.20;;
13455;SDS011;6800;50.940;6.940;2022-09-23T15:36:44;5.43;;;1.90;;
13455;SDS011;6800;50.940;6.940;2022-09-23T15:40:46;6.32;;;1.77;;
13455;SDS011;6800;50.940;6.940;2022-09-23T15:44:47;7.75;;;2.25;;
13455;SDS011;6800;50.940;6.940;2022-09-23T15:48:53;6.43;;;2.10;;
13455;SDS011;6800;50.940;6.940;2022-09-23T15:52:55;8.55;;;2.88;;
13455;SDS011;6800;50.940;6.940;2022-09-23T15:56:55;4.25;;;2.40;;
13455;SDS011;6800;50.940;6.940;2022-09-23T16:00:56;4.55;;;2.33;;
13455;SDS011;6800;50.940;6.940;2022-09-23T16:04:56;6.20;;;2.75;;
13455;SDS011;6800;50.940;6.940;2022-09-23T16:08:56;7.45;;;2.78;;
13455;SDS011;6800;50.940;6.940;2022-09-23T16:12:57;3.67;;;2.45;;
13455;SDS011;6800;50.940;6.940;2022-09-23T16:17:01;4.60;;;2.47;;
13455;SDS011;6800;50.940;6.940;2022-09-23T16:21:02;3.85;;;1.92;;
13455;SDS011;6800;50.940;6.940;2022-09-23T16:25:04;3.95;;;1.98;;
13455;SDS011;6800;50.940;6.940;2022-09-23T16:29:07;4.35;;;2.38;;
13455;SDS011;6800;50.940;6.940;2022-09-23T16:33:08;6.43;;;2.40;;
13455;SDS011;6800;50.940;6.940;2022-09-23T16:37:10;5.05;;;2.80;;
13455;SDS011;6800;50.940;6.940;2022-09-23T16:41:14;3.75;;;2.75;;
13455;SDS011;6800;50.940;6.940;2022-09-23T16:45:15;3.85;;;2.42;;
13455;SDS011;6800;50.940;6.940;2022-09-23T16:49:17;7.18;;;3.38;;
13455;SDS011;6800;50.940;6.940;2022-09-23T16:53:17;6.28;;;3.88;;
13455;SDS011;6800;50.940;6.940;2022-09-23T16:57:17;5.10;;;3.30;;
13455;SDS011;6800;50.940;6.940;2022-09-23T17:01:20;5.22;;;2.95;;
13455;SDS011;6800;50.940;6.940;2022-09-23T17:05:40;5.07;;;2.80;;
13455;SDS011;6800;50.940;6.940;2022-09-23T17:09:43;5.07;;;2.33;;
13455;SDS011;6800;50.940;6.940;2022-09-23T17:13:44;3.47;;;2.40;;
13455;SDS011;6800;50.940;6.940;2022-09-23T17:17:44;5.60;;;2.50;;
13455;SDS011;6800;50.940;6.940;2022-09-23T17:21:44;3.08;;;2.05;;
13455;SDS011;6800;50.940;6.940;2022-09-23T17:25:48;6.03;;;3.25;;
13455;SDS011;6800;50.940;6.940;2022-09-23T17:29:48;5.30;;;3.40;;
13455;SDS011;6800;50.940;6.940;2022-09-23T17:33:49;6.57;;;3.53;;
13455;SDS011;6800;50.940;6.940;2022-09-23T17:37:50;5.13;;;3.40;;
13455;SDS011;6800;50.940;6.940;2022-09-23T17:41:53;8.70;;;5.18;;
13455;SDS011;6800;50.940;6.940;2022-09-23T17:45:59;6.28;;;5.10;;
13455;SDS011;6800;50.940;6.940;2022-09-23T17:50:04;7.00;;;4.07;;
13455;SDS011;6800;50.940;6.940;2022-09-23T17:54:04;9.40;;;4.40;;
13455;SDS011;6800;50.940;6.940;2022-09-23T17:58:05;7.65;;;3.97;;
13455;SDS011;6800;50.940;6.940;2022-09-23T18:02:05;7.60;;;4.63;;
13455;SDS011;6800;50.940;6.940;2022-09-23T18:10:07;8.00;;;4.15;;
13455;SDS011;6800;50.940;6.940;2022-09-23T18:14:11;9.95;;;4.22;;
13455;SDS011;6800;50.940;6.940;2022-09-23T18:18:14;4.60;;;3.20;;
13455;SDS011;6800;50.940;6.940;2022-09-23T18:22:14;8.18;;;3.80;;
13455;SDS011;6800;50.940;6.940;2022-09-23T18:26:15;4.47;;;3.42;;
13455;SDS011;6800;50.940;6.940;2022-09-23T18:30:19;6.40;;;3.90;;
13455;SDS011;6800;50.940;6.940;2022-09-23T18:34:19;7.30;;;4.88;;
13455;SDS011;6800;50.940;6.940;2022-09-23T18:38:20;8.13;;;4.40;;
13455;SDS011;6800;50.940;6.940;2022-09-23T18:42:20;7.07;;;5.30;;
13455;SDS011;6800;50.940;6.940;2022-09-23T18:46:21;11.98;;;8.45;;
13455;SDS011;6800;50.940;6.940;2022-09-23T18:50:23;9.07;;;6.07;;
13455;SDS011;6800;50.940;6.940;2022-09-23T18:54:38;11.35;;;8.02;;
13455;SDS011;6800;50.940;6.940;2022-09-23T18:58:38;11.70;;;8.65;;
13455;SDS011;6800;50.940;6.940;2022-09-23T19:02:43;11.68;;;7.93;;
13455;SDS011;6800;50.940;6.940;2022-09-23T19:06:46;9.13;;;4.80;;
13455;SDS011;6800;50.940;6.940;2022-09-23T19:10:53;5.78;;;4.60;;
13455;SDS011;6800;50.940;6.940;2022-09-23T19:14:54;7.47;;;4.10;;
13455;SDS011;6800;50.940;6.940;2022-09-23T19:18:55;6.45;;;4.60;;
13455;SDS011;6800;50.940;6.940;2022-09-23T19:22:55;9.32;;;5.63;;
13455;SDS011;6800;50.940;6.940;2022-09-23T19:26:55;9.68;;;5.82;;
13455;SDS011;6800;50.940;6.940;2022-09-23T19:30:55;9.60;;;6.00;;
13455;SDS011;6800;50.940;6.940;2022-09-23T19:34:56;9.80;;;5.60;;
13455;SDS011;6800;50.940;6.940;2022-09-23T19:38:58;10.85;;;6.20;;
13455;SDS011;6800;50.940;6.940;2022-09-23T19:43:01;10.52;;;7.22;;
13455;SDS011;6800;50.940;6.940;2022-09-23T19:47:03;13.95;;;7.85;;
13455;SDS011;6800;50.940;6.940;2022-09-23T19:51:04;9.77;;;6.95;;
13455;SDS011;6800;50.940;6.940;2022-09-23T19:55:05;9.65;;;6.65;;
13455;SDS011;6800;50.940;6.940;2022-09-23T19:59:06;9.07;;;6.78;;
13455;SDS011;6800;50.940;6.940;2022-09-23T20:03:08;9.95;;;7.25;;
13455;SDS011;6800;50.940;6.940;2022-09-23T20:07:08;7.95;;;6.35;;
13455;SDS011;6800;50.940;6.940;2022-09-23T20:11:16;10.85;;;6.32;;
13455;SDS011;6800;50.940;6.940;2022-09-23T20:15:19;6.68;;;4.80;;
13455;SDS011;6800;50.940;6.940;2022-09-23T20:19:19;10.02;;;6.00;;
13455;SDS011;6800;50.940;6.940;2022-09-23T20:23:20;6.63;;;5.45;;
13455;SDS011;6800;50.940;6.940;2022-09-23T20:27:21;6.85;;;5.05;;
13455;SDS011;6800;50.940;6.940;2022-09-23T20:31:24;7.65;;;5.35;;
13455;SDS011;6800;50.940;6.940;2022-09-23T20:35:25;7.45;;;5.45;;
13455;SDS011;6800;50.940;6.940;2022-09-23T20:39:30;7.65;;;5.60;;
13455;SDS011;6800;50.940;6.940;2022-09-23T20:43:30;7.35;;;5.57;;
13455;SDS011;6800;50.940;6.940;2022-09-23T20:47:33;10.20;;;5.93;;
13455;SDS011;6800;50.940;6.940;2022-09-23T20:51:34;7.32;;;5.65;;
13455;SDS011;6800;50.940;6.940;2022-09-23T20:55:35;9.52;;;6.60;;
13455;SDS011;6800;50.940;6.940;2022-09-23T20:59:35;7.97;;;6.32;;
13455;SDS011;6800;50.940;6.940;2022-09-23T21:03:37;5.53;;;4.50;;
13455;SDS011;6800;50.940;6.940;2022-09-23T21:07:39;5.63;;;4.43;;
13455;SDS011;6800;50.940;6.940;2022-09-23T21:11:39;7.47;;;5.18;;
13455;SDS011;6800;50.940;6.940;2022-09-23T21:15:39;7.45;;;4.47;;
13455;SDS011;6800;50.940;6.940;2022-09-23T21:19:40;7.10;;;5.43;;
13455;SDS011;6800;50.940;6.940;2022-09-23T21:23:41;8.18;;;5.10;;
13455;SDS011;6800;50.940;6.940;2022-09-23T21:27:42;10.93;;;6.22;;
13455;SDS011;6800;50.940;6.940;2022-09-23T21:31:43;8.52;;;5.55;;
13455;SDS011;6800;50.940;6.940;2022-09-23T21:35:44;7.60;;;5.18;;
13455;SDS011;6800;50.940;6.940;2022-09-23T21:39:44;6.75;;;4.43;;
13455;SDS011;6800;50.940;6.940;2022-09-23T21:44:04;8.63;;;5.50;;
13455;SDS011;6800;50.940;6.940;2022-09-23T21:48:05;9.63;;;6.43;;
13455;SDS011;6800;50.940;6.940;2022-09-23T21:52:06;8.87;;;5.53;;
13455;SDS011;6800;50.940;6.940;2022-09-23T21:56:10;9.33;;;6.43;;
13455;SDS011;6800;50.940;6.940;2022-09-23T22:00:12;11.17;;;5.80;;
13455;SDS011;6800;50.940;6.940;2022-09-23T22:04:14;8.20;;;7.13;;
13455;SDS011;6800;50.940;6.940;2022-09-23T22:08:16;10.70;;;7.57;;
13455;SDS011;6800;50.940;6.940;2022-09-23T22:12:16;9.93;;;6.77;;
13455;SDS011;6800;50.940;6.940;2022-09-23T22:16:17;7.93;;;6.50;;
13455;SDS011;6800;50.940;6.940;2022-09-23T22:20:17;7.90;;;6.17;;
13455;SDS011;6800;50.940;6.940;2022-09-23T22:24:18;10.70;;;7.27;;
13455;SDS011;6800;50.940;6.940;2022-09-23T22:28:19;10.77;;;8.37;;
13455;SDS011;6800;50.940;6.940;2022-09-23T22:32:38;9.90;;;6.80;;
13455;SDS011;6800;50.940;6.940;2022-09-23T22:36:42;11.73;;;6.97;;
13455;SDS011;6800;50.940;6.940;2022-09-23T22:40:42;7.27;;;6.50;;
13455;SDS011;6800;50.940;6.940;2022-09-23T22:44:42;7.17;;;6.47;;
13455;SDS011;6800;50.940;6.940;2022-09-23T22:48:43;7.17;;;5.47;;
13455;SDS011;6800;50.940;6.940;2022-09-23T22:52:43;9.03;;;5.80;;
13455;SDS011;6800;50.940;6.940;2022-09-23T22:56:43;10.13;;;5.57;;
13455;SDS011;6800;50.940;6.940;2022-09-23T23:00:44;7.17;;;5.60;;
13455;SDS011;6800;50.940;6.940;2022-09-23T23:04:46;7.73;;;6.67;;
13455;SDS011;6800;50.940;6.940;2022-09-23T23:08:47;8.53;;;7.30;;
13455;SDS011;6800;50.940;6.940;2022-09-23T23:12:47;6.90;;;5.70;;
13455;SDS011;6800;50.940;6.940;2022-09-23T23:16:51;8.30;;;5.40;;
13455;SDS011;6800;50.940;6.940;2022-09-23T23:20:51;7.13;;;6.10;;
13455;SDS011;6800;50.940;6.940;2022-09-23T23:24:52;8.80;;;5.97;;
13455;SDS011;6800;50.940;6.940;2022-09-23T23:28:56;8.13;;;6.77;;
13455;SDS011;6800;50.940;6.940;2022-09-23T23:33:06;8.03;;;6.83;;
13455;SDS011;6800;50.940;6.940;2022-09-23T23:37:06;7.90;;;6.93;;
13455;SDS011;6800;50.940;6.940;2022-09-23T23:41:07;8.70;;;6.70;;
13455;SDS011;6800;50.940;6.940;2022-09-23T23:45:12;8.73;;;6.97;;
13455;SDS011;6800;50.940;6.940;2022-09-23T23:49:12;10.10;;;6.43;;
13455;SDS011;6800;50.940;6.940;2022-09-23T23:53:12;8.93;;;6.17;;
13455;SDS011;6800;50.940;6.940;2022-09-23T23:57:13;7.63;;;6.33;;
